createdAt,value
2023-02-24T00:02:04.690Z,85.60
2023-02-24T00:04:14.888Z,85.91
2023-02-24T00:06:17.663Z,85.87
2023-02-24T00:08:20.188Z,85.45
2023-02-24T00:10:22.950Z,85.23
2023-02-24T00:12:25.459Z,85.74
2023-02-24T00:14:33.595Z,85.83
2023-02-24T00:16:37.985Z,85.95
2023-02-24T00:18:40.979Z,85.55
2023-02-24T00:20:43.585Z,85.42
2023-02-24T00:22:46.249Z,85.67
2023-02-24T00:24:49.177Z,85.54
2023-02-24T00:27:00.311Z,85.37
2023-02-24T00:29:06.182Z,85.16
2023-02-24T00:31:14.359Z,84.93
2023-02-24T00:33:17.157Z,85.17
2023-02-24T00:35:19.750Z,84.99
2023-02-24T00:37:24.165Z,84.71
2023-02-24T00:39:33.641Z,84.73
2023-02-24T00:41:41.773Z,84.60
2023-02-24T00:43:49.052Z,84.52
2023-02-24T00:45:52.011Z,84.49
2023-02-24T00:47:57.641Z,84.25
2023-02-24T00:50:00.182Z,84.57
2023-02-24T00:52:06.770Z,84.45
2023-02-24T00:54:15.013Z,84.40
2023-02-24T00:56:17.882Z,84.32
2023-02-24T00:58:20.657Z,84.41
2023-02-24T01:00:23.623Z,84.34
2023-02-24T01:02:26.922Z,84.61
2023-02-24T01:04:29.985Z,84.52
2023-02-24T01:06:34.402Z,84.22
2023-02-24T01:08:40.342Z,84.12
2023-02-24T01:11:02.828Z,83.81
2023-02-24T01:13:05.336Z,84.13
2023-02-24T01:15:09.327Z,83.76
2023-02-24T01:17:11.976Z,83.88
2023-02-24T01:19:14.472Z,83.66
2023-02-24T01:21:20.164Z,83.84
2023-02-24T01:23:24.407Z,84.17
2023-02-24T01:25:27.981Z,84.12
2023-02-24T01:27:31.689Z,84.38
2023-02-24T01:29:39.497Z,84.34
2023-02-24T01:31:43.843Z,84.19
2023-02-24T01:33:50.431Z,84.11
2023-02-24T01:35:55.537Z,84.35
2023-02-24T01:37:59.317Z,84.46
2023-02-24T01:40:10.472Z,84.50
2023-02-24T01:42:22.088Z,84.55
2023-02-24T01:44:25.274Z,84.74
2023-02-24T01:46:35.754Z,84.85
2023-02-24T01:48:38.478Z,84.48
2023-02-24T01:50:40.929Z,84.24
2023-02-24T01:52:46.824Z,83.91
2023-02-24T01:54:55.327Z,83.65
2023-02-24T01:56:58.835Z,83.56
2023-02-24T01:59:03.670Z,83.80
2023-02-24T02:01:09.568Z,83.77
2023-02-24T02:03:24.367Z,83.97
2023-02-24T02:05:27.054Z,84.08
2023-02-24T02:07:30.510Z,83.97
2023-02-24T02:09:34.339Z,84.15
2023-02-24T02:11:37.129Z,83.99
2023-02-24T02:13:45.049Z,83.75
2023-02-24T02:16:11.418Z,83.41
2023-02-24T02:18:41.246Z,83.64
2023-02-24T02:21:06.223Z,83.32
2023-02-24T02:23:33.673Z,83.15
2023-02-24T02:26:13.414Z,83.15
2023-02-24T02:28:45.655Z,83.27
2023-02-24T02:30:57.285Z,83.12
2023-02-24T02:33:21.756Z,82.67
2023-02-24T02:35:40.569Z,82.56
2023-02-24T02:37:51.710Z,83.05
2023-02-24T02:40:01.435Z,82.63
2023-02-24T02:42:14.477Z,82.85
2023-02-24T02:44:33.128Z,82.90
2023-02-24T02:46:41.425Z,83.17
2023-02-24T02:48:47.829Z,83.19
2023-02-24T02:50:55.400Z,83.15
2023-02-24T02:53:13.882Z,83.27
2023-02-24T02:55:40.545Z,82.62
2023-02-24T02:57:49.272Z,82.84
2023-02-24T03:00:10.557Z,82.52
2023-02-24T03:02:13.408Z,83.03
2023-02-24T03:04:19.293Z,82.85
2023-02-24T03:06:38.966Z,83.37
2023-02-24T03:08:50.231Z,83.33
2023-02-24T03:10:54.380Z,83.44
2023-02-24T03:13:00.518Z,83.81
2023-02-24T03:15:07.800Z,83.44
2023-02-24T03:17:17.135Z,82.92
2023-02-24T03:19:32.247Z,83.60
2023-02-24T03:22:15.553Z,83.50
2023-02-24T03:24:18.427Z,82.86
2023-02-24T03:26:41.602Z,82.91
2023-02-24T03:29:11.123Z,83.33
2023-02-24T03:31:23.599Z,83.65
2023-02-24T03:33:37.178Z,83.83
2023-02-24T03:35:42.419Z,83.89
2023-02-24T03:37:47.513Z,83.84
2023-02-24T03:39:53.276Z,84.17
2023-02-24T03:42:04.408Z,84.11
2023-02-24T03:44:11.262Z,83.82
2023-02-24T03:46:19.798Z,84.05
2023-02-24T03:48:22.970Z,83.75
2023-02-24T03:50:31.847Z,83.80
2023-02-24T03:53:09.484Z,83.60
2023-02-24T03:55:26.859Z,83.90
2023-02-24T03:57:59.880Z,83.56
2023-02-24T04:00:22.945Z,83.88
2023-02-24T04:02:31.250Z,83.76
2023-02-24T04:04:52.988Z,83.99
2023-02-24T04:07:00.944Z,84.17
2023-02-24T04:09:23.728Z,84.39
2023-02-24T04:11:41.385Z,84.08
2023-02-24T04:13:51.520Z,84.13
2023-02-24T04:16:04.887Z,83.72
2023-02-24T04:18:17.729Z,83.66
2023-02-24T04:20:25.094Z,83.72
2023-02-24T04:22:29.346Z,83.65
2023-02-24T04:24:34.391Z,83.12
2023-02-24T04:26:40.697Z,83.40
2023-02-24T04:28:44.221Z,83.12
2023-02-24T04:30:50.978Z,82.73
2023-02-24T04:32:54.292Z,83.13
2023-02-24T04:35:09.527Z,82.58
2023-02-24T04:37:12.091Z,82.19
2023-02-24T04:39:16.533Z,81.87
2023-02-24T04:41:21.833Z,81.79
2023-02-24T04:43:24.597Z,81.85
2023-02-24T04:45:30.212Z,81.68
2023-02-24T04:47:32.749Z,81.70
2023-02-24T04:49:35.233Z,82.07
2023-02-24T04:51:42.498Z,81.68
2023-02-24T04:53:45.004Z,81.40
2023-02-24T04:55:51.163Z,81.76
2023-02-24T04:57:54.255Z,81.90
2023-02-24T04:59:57.858Z,81.70
2023-02-24T05:02:03.478Z,81.87
2023-02-24T05:04:08.538Z,81.52
2023-02-24T05:06:16.580Z,81.48
2023-02-24T05:08:20.013Z,81.18
2023-02-24T05:10:28.178Z,81.22
2023-02-24T05:12:32.113Z,80.82
2023-02-24T05:14:34.668Z,80.62
2023-02-24T05:16:37.875Z,81.10
2023-02-24T05:18:41.005Z,80.28
2023-02-24T05:21:05.177Z,80.66
2023-02-24T05:23:10.121Z,80.42
2023-02-24T05:25:14.533Z,80.23
2023-02-24T05:27:17.606Z,79.98
2023-02-24T05:29:20.478Z,80.18
2023-02-24T05:31:29.081Z,79.85
2023-02-24T05:33:32.311Z,79.87
2023-02-24T05:35:37.134Z,79.64
2023-02-24T05:37:42.124Z,79.69
2023-02-24T05:39:44.703Z,79.15
2023-02-24T05:41:49.057Z,78.84
2023-02-24T05:43:55.838Z,78.88
2023-02-24T05:46:04.358Z,78.79
2023-02-24T05:48:06.825Z,78.80
2023-02-24T05:50:10.358Z,78.14
2023-02-24T05:52:14.500Z,78.26
2023-02-24T05:54:17.592Z,78.01
2023-02-24T05:56:20.206Z,78.49
2023-02-24T05:58:24.640Z,77.70
2023-02-24T06:00:27.229Z,77.87
2023-02-24T06:02:37.420Z,77.69
2023-02-24T06:04:54.041Z,77.57
2023-02-24T06:06:56.765Z,77.07
2023-02-24T06:09:02.005Z,77.47
2023-02-24T06:11:05.431Z,77.37
2023-02-24T06:13:08.114Z,76.86
2023-02-24T06:15:11.257Z,77.01
2023-02-24T06:17:20.886Z,77.06
2023-02-24T06:19:25.547Z,76.45
2023-02-24T06:21:31.083Z,76.83
2023-02-24T06:23:34.040Z,76.78
2023-02-24T06:25:38.802Z,76.52
2023-02-24T06:27:43.240Z,75.92
2023-02-24T06:29:50.164Z,76.16
2023-02-24T06:31:54.820Z,75.59
2023-02-24T06:33:57.420Z,75.78
2023-02-24T06:36:00.836Z,75.40
2023-02-24T06:38:04.594Z,75.15
2023-02-24T06:40:26.695Z,75.42
2023-02-24T06:42:29.514Z,75.10
2023-02-24T06:44:33.994Z,74.55
2023-02-24T06:46:37.260Z,73.88
2023-02-24T06:48:40.096Z,74.25
2023-02-24T06:50:43.306Z,74.40
2023-02-24T06:52:47.733Z,73.43
2023-02-24T06:54:52.529Z,73.61
2023-02-24T06:56:56.330Z,72.97
2023-02-24T06:58:59.379Z,73.16
2023-02-24T07:01:04.780Z,72.91
2023-02-24T07:03:15.515Z,71.73
2023-02-24T07:05:19.092Z,71.84
2023-02-24T07:07:22.760Z,72.06
2023-02-24T07:09:26.868Z,71.74
2023-02-24T07:11:29.608Z,70.99
2023-02-24T07:13:33.197Z,71.07
2023-02-24T07:15:38.531Z,70.53
2023-02-24T07:17:41.129Z,70.06
2023-02-24T07:19:44.254Z,70.35
2023-02-24T07:21:50.202Z,70.24
2023-02-24T07:23:59.260Z,69.32
2023-02-24T07:26:12.071Z,69.60
2023-02-24T07:28:14.776Z,69.62
2023-02-24T07:30:17.929Z,67.72
2023-02-24T07:32:22.619Z,69.11
2023-02-24T07:34:25.793Z,69.00
2023-02-24T07:36:30.533Z,68.00
2023-02-24T07:38:33.193Z,66.98
2023-02-24T07:40:37.292Z,67.58
2023-02-24T07:42:39.804Z,67.74
2023-02-24T07:44:44.675Z,67.12
2023-02-24T07:46:49.237Z,66.95
2023-02-24T07:48:52.909Z,65.77
2023-02-24T07:50:55.350Z,66.46
2023-02-24T07:52:58.185Z,66.52
2023-02-24T07:55:00.703Z,65.95
2023-02-24T07:57:03.478Z,66.36
2023-02-24T07:59:10.000Z,66.26
2023-02-24T08:01:23.476Z,65.82
2023-02-24T08:03:30.271Z,65.53
2023-02-24T08:05:34.457Z,64.41
2023-02-24T08:07:38.257Z,65.10
2023-02-24T08:09:43.861Z,64.70
2023-02-24T08:11:56.311Z,64.47
2023-02-24T08:13:59.340Z,64.88
2023-02-24T08:16:04.870Z,64.59
2023-02-24T08:18:07.632Z,64.23
2023-02-24T08:20:13.574Z,64.00
2023-02-24T08:22:20.542Z,64.03
2023-02-24T08:24:25.467Z,61.98
2023-02-24T08:26:31.821Z,62.83
2023-02-24T08:28:34.594Z,63.20
2023-02-24T08:30:47.916Z,62.70
2023-02-24T08:33:00.151Z,62.79
2023-02-24T08:35:15.093Z,62.83
2023-02-24T08:37:17.573Z,62.79
2023-02-24T08:39:22.630Z,61.79
2023-02-24T08:41:45.006Z,62.39
2023-02-24T08:43:48.607Z,61.67
2023-02-24T08:45:56.683Z,61.40
2023-02-24T08:48:00.713Z,61.87
2023-02-24T08:50:07.242Z,61.66
2023-02-24T08:52:09.891Z,61.05
2023-02-24T08:54:18.133Z,61.40
2023-02-24T08:56:26.047Z,61.00
2023-02-24T08:58:28.693Z,61.25
2023-02-24T09:00:49.396Z,61.61
2023-02-24T09:02:56.300Z,60.55
2023-02-24T09:05:07.653Z,60.95
2023-02-24T09:07:15.557Z,60.29
2023-02-24T09:09:23.200Z,60.82
2023-02-24T09:11:26.014Z,60.63
2023-02-24T09:13:33.272Z,61.54
2023-02-24T09:15:41.633Z,60.92
2023-02-24T09:17:45.339Z,61.11
2023-02-24T09:19:51.818Z,60.78
2023-02-24T09:22:21.239Z,60.86
2023-02-24T09:24:27.245Z,60.77
2023-02-24T09:26:33.231Z,60.14
2023-02-24T09:28:48.675Z,60.92
2023-02-24T09:30:57.056Z,60.55
2023-02-24T09:33:02.511Z,60.59
2023-02-24T09:35:05.309Z,60.69
2023-02-24T09:37:25.100Z,59.28
2023-02-24T09:39:27.997Z,59.78
2023-02-24T09:41:54.785Z,58.29
2023-02-24T09:44:18.783Z,58.92
2023-02-24T09:46:21.592Z,58.69
2023-02-24T09:48:43.973Z,59.22
2023-02-24T09:51:04.329Z,59.51
2023-02-24T09:53:17.593Z,58.75
2023-02-24T09:55:36.171Z,59.10
2023-02-24T09:58:10.263Z,58.37
2023-02-24T10:00:25.014Z,58.91
2023-02-24T10:02:46.314Z,57.23
2023-02-24T10:05:07.531Z,59.01
2023-02-24T10:07:18.668Z,58.06
2023-02-24T10:09:47.082Z,58.78
2023-02-24T10:12:04.624Z,59.19
2023-02-24T10:14:19.606Z,58.88
2023-02-24T10:16:24.307Z,58.17
2023-02-24T10:18:28.740Z,59.01
2023-02-24T10:20:40.588Z,58.10
2023-02-24T10:22:50.941Z,58.54
2023-02-24T10:25:21.091Z,58.28
2023-02-24T10:27:33.778Z,58.81
2023-02-24T10:30:01.214Z,58.63
2023-02-24T10:32:35.935Z,58.30
2023-02-24T10:34:38.882Z,58.30
2023-02-24T10:36:43.826Z,58.36
2023-02-24T10:38:46.833Z,58.53
2023-02-24T10:40:57.765Z,58.62
2023-02-24T10:43:10.842Z,57.72
2023-02-24T10:45:37.794Z,58.50
2023-02-24T10:47:44.566Z,58.49
2023-02-24T10:49:59.154Z,59.00
2023-02-24T10:52:09.185Z,57.99
2023-02-24T10:54:42.466Z,59.28
2023-02-24T10:56:55.419Z,58.71
2023-02-24T10:59:20.985Z,58.95
2023-02-24T11:01:49.684Z,58.29
2023-02-24T11:04:22.751Z,58.73
2023-02-24T11:06:42.448Z,59.21
2023-02-24T11:08:47.962Z,59.06
2023-02-24T11:10:59.098Z,58.60
2023-02-24T11:13:20.346Z,57.79
2023-02-24T11:15:48.937Z,57.78
2023-02-24T11:17:57.504Z,57.93
2023-02-24T11:20:26.155Z,57.29
2023-02-24T11:22:37.709Z,58.27
2023-02-24T11:24:40.546Z,57.27
2023-02-24T11:26:43.185Z,57.54
2023-02-24T11:29:13.310Z,56.30
2023-02-24T11:31:31.094Z,57.15
2023-02-24T11:33:49.493Z,57.99
2023-02-24T11:36:16.704Z,57.20
2023-02-24T11:38:38.699Z,58.36
2023-02-24T11:40:48.460Z,57.91
2023-02-24T11:42:59.444Z,57.92
2023-02-24T11:45:09.613Z,58.27
2023-02-24T11:47:20.761Z,58.64
2023-02-24T11:49:44.282Z,59.44
2023-02-24T11:51:46.939Z,58.84
2023-02-24T11:54:12.261Z,58.95
2023-02-24T11:56:17.455Z,58.68
2023-02-24T11:58:45.695Z,59.29
2023-02-24T12:00:57.879Z,58.94
2023-02-24T12:03:05.896Z,58.36
2023-02-24T12:05:18.891Z,58.77
2023-02-24T12:07:29.558Z,58.41
2023-02-24T12:09:38.383Z,59.12
2023-02-24T12:11:52.436Z,59.71
2023-02-24T12:14:19.033Z,59.56
2023-02-24T12:16:25.870Z,60.20
2023-02-24T12:18:52.522Z,60.30
2023-02-24T12:21:00.890Z,60.65
2023-02-24T12:23:16.024Z,61.60
2023-02-24T12:25:23.147Z,61.46
2023-02-24T12:27:59.047Z,61.30
2023-02-24T12:30:38.791Z,59.64
2023-02-24T12:33:01.902Z,61.55
2023-02-24T12:35:10.353Z,61.26
2023-02-24T12:37:46.438Z,61.18
2023-02-24T12:40:18.347Z,61.86
2023-02-24T12:42:31.717Z,61.33
2023-02-24T12:45:13.266Z,61.73
2023-02-24T12:47:40.633Z,61.84
2023-02-24T12:50:02.059Z,62.14
2023-02-24T12:52:18.167Z,61.94
2023-02-24T12:54:29.527Z,62.01
2023-02-24T12:56:47.189Z,62.27
2023-02-24T12:58:52.293Z,62.48
2023-02-24T13:00:54.853Z,62.28
2023-02-24T13:03:06.008Z,62.83
2023-02-24T13:05:29.789Z,63.26
2023-02-24T13:08:11.204Z,63.77
2023-02-24T13:10:38.721Z,63.73
2023-02-24T13:12:54.162Z,64.29
2023-02-24T13:14:57.316Z,64.69
2023-02-24T13:17:13.074Z,64.49
2023-02-24T13:19:20.877Z,64.42
2023-02-24T13:21:24.940Z,65.51
2023-02-24T13:23:27.683Z,65.66
2023-02-24T13:25:37.691Z,65.33
2023-02-24T13:27:46.609Z,64.85
2023-02-24T13:29:57.395Z,65.33
2023-02-24T13:32:00.294Z,66.33
2023-02-24T13:34:15.990Z,66.75
2023-02-24T13:36:24.345Z,65.92
2023-02-24T13:38:37.089Z,66.77
2023-02-24T13:40:39.647Z,66.31
2023-02-24T13:42:43.613Z,66.74
2023-02-24T13:45:03.191Z,67.18
2023-02-24T13:47:16.947Z,67.67
2023-02-24T13:49:54.393Z,67.10
2023-02-24T13:52:04.137Z,68.42
2023-02-24T13:54:09.770Z,68.35
2023-02-24T13:56:29.783Z,69.01
2023-02-24T13:58:50.473Z,69.44
2023-02-24T14:00:53.064Z,69.88
2023-02-24T14:02:56.380Z,69.95
2023-02-24T14:05:03.488Z,70.55
2023-02-24T14:07:11.925Z,70.46
2023-02-24T14:09:18.868Z,70.60
2023-02-24T14:11:26.980Z,71.37
2023-02-24T14:13:34.298Z,71.55
2023-02-24T14:15:41.652Z,71.84
2023-02-24T14:17:44.305Z,72.18
2023-02-24T14:19:46.795Z,73.04
2023-02-24T14:21:56.240Z,73.66
2023-02-24T14:24:00.169Z,73.60
2023-02-24T14:26:08.901Z,74.31
2023-02-24T14:28:21.787Z,74.95
2023-02-24T14:30:29.293Z,76.10
2023-02-24T14:32:34.211Z,76.83
2023-02-24T14:34:37.012Z,76.85
2023-02-24T14:36:43.950Z,77.28
2023-02-24T14:38:46.564Z,77.64
2023-02-24T14:40:49.109Z,78.31
2023-02-24T14:42:54.831Z,77.72
2023-02-24T14:44:59.256Z,77.55
2023-02-24T14:47:07.821Z,77.94
2023-02-24T14:49:18.817Z,77.99
2023-02-24T14:51:26.410Z,77.88
2023-02-24T14:53:30.960Z,78.13
2023-02-24T14:55:37.821Z,78.46
2023-02-24T14:57:50.924Z,78.47
2023-02-24T15:00:07.340Z,78.97
2023-02-24T15:02:19.812Z,78.96
2023-02-24T15:04:31.056Z,78.63
2023-02-24T15:06:40.881Z,78.88
2023-02-24T15:08:48.747Z,78.99
2023-02-24T15:10:51.416Z,78.93
2023-02-24T15:13:01.626Z,79.14
2023-02-24T15:15:19.308Z,78.82
2023-02-24T15:17:22.633Z,78.53
2023-02-24T15:19:32.154Z,78.04
2023-02-24T15:21:41.151Z,78.53
2023-02-24T15:23:44.726Z,78.06
2023-02-24T15:25:47.367Z,77.94
2023-02-24T15:28:02.064Z,77.71
2023-02-24T15:30:25.068Z,77.64
2023-02-24T15:32:29.758Z,76.63
2023-02-24T15:34:35.919Z,77.53
2023-02-24T15:36:38.623Z,76.83
2023-02-24T15:38:42.857Z,76.41
2023-02-24T15:40:59.409Z,76.27
2023-02-24T15:43:10.150Z,75.38
2023-02-24T15:45:42.733Z,75.58
2023-02-24T15:47:46.311Z,75.37
2023-02-24T15:49:49.010Z,75.85
2023-02-24T15:51:54.902Z,74.96
2023-02-24T15:54:00.215Z,75.35
2023-02-24T15:56:03.670Z,74.94
2023-02-24T15:58:06.279Z,75.05
2023-02-24T16:00:14.872Z,75.45
2023-02-24T16:02:20.028Z,74.98
2023-02-24T16:04:24.225Z,74.68
2023-02-24T16:06:28.954Z,75.25
2023-02-24T16:08:32.088Z,74.97
2023-02-24T16:10:34.693Z,74.79
2023-02-24T16:12:44.162Z,74.78
2023-02-24T16:14:50.238Z,75.28
2023-02-24T16:16:53.244Z,76.04
2023-02-24T16:18:56.886Z,76.07
2023-02-24T16:20:59.462Z,76.48
2023-02-24T16:23:05.007Z,77.31
2023-02-24T16:25:08.547Z,77.47
2023-02-24T16:27:17.521Z,78.08
2023-02-24T16:29:20.104Z,78.10
2023-02-24T16:31:26.704Z,78.68
2023-02-24T16:33:29.547Z,78.88
2023-02-24T16:35:32.266Z,78.98
2023-02-24T16:37:34.780Z,80.22
2023-02-24T16:39:37.345Z,80.56
2023-02-24T16:41:39.926Z,80.98
2023-02-24T16:43:42.474Z,80.70
2023-02-24T16:45:46.051Z,81.77
2023-02-24T16:47:49.794Z,81.92
2023-02-24T16:49:55.468Z,82.21
2023-02-24T16:51:58.050Z,82.83
2023-02-24T16:54:00.523Z,82.98
2023-02-24T16:56:04.966Z,82.94
2023-02-24T16:58:07.461Z,83.13
2023-02-24T17:00:13.016Z,83.03
2023-02-24T17:02:25.890Z,83.31
2023-02-24T17:04:28.640Z,83.55
2023-02-24T17:06:31.505Z,83.88
2023-02-24T17:08:34.191Z,83.99
2023-02-24T17:10:39.342Z,83.39
2023-02-24T17:12:42.247Z,83.32
2023-02-24T17:14:44.786Z,83.87
2023-02-24T17:16:47.924Z,83.96
2023-02-24T17:18:50.538Z,83.69
2023-02-24T17:20:54.151Z,83.40
2023-02-24T17:22:56.793Z,84.10
2023-02-24T17:25:00.200Z,84.43
2023-02-24T17:27:04.566Z,84.21
2023-02-24T17:29:07.569Z,84.05
2023-02-24T17:31:10.285Z,83.53
2023-02-24T17:33:14.540Z,83.64
2023-02-24T17:35:17.258Z,82.99
2023-02-24T17:37:20.751Z,83.21
2023-02-24T17:39:23.284Z,82.55
2023-02-24T17:41:26.172Z,82.84
2023-02-24T17:43:29.714Z,82.67
2023-02-24T17:45:32.302Z,81.76
2023-02-24T17:47:35.334Z,81.46
2023-02-24T17:49:37.943Z,81.42
2023-02-24T17:51:40.729Z,81.01
2023-02-24T17:53:43.636Z,81.25
2023-02-24T17:56:01.481Z,81.58
2023-02-24T17:58:05.052Z,81.50
2023-02-24T18:00:13.314Z,81.69
2023-02-24T18:02:18.152Z,81.77
2023-02-24T18:04:20.752Z,82.07
2023-02-24T18:06:24.720Z,82.01
2023-02-24T18:08:28.116Z,82.32
2023-02-24T18:10:30.787Z,82.45
2023-02-24T18:12:33.315Z,82.74
2023-02-24T18:14:35.819Z,82.92
2023-02-24T18:16:39.953Z,82.26
2023-02-24T18:18:42.579Z,82.51
2023-02-24T18:20:45.532Z,81.79
2023-02-24T18:22:48.183Z,82.17
2023-02-24T18:24:51.101Z,82.77
2023-02-24T18:26:53.758Z,82.87
2023-02-24T18:28:56.736Z,82.49
2023-02-24T18:31:00.789Z,82.84
2023-02-24T18:33:03.596Z,83.01
2023-02-24T18:35:06.665Z,82.27
2023-02-24T18:37:09.168Z,82.29
2023-02-24T18:39:14.720Z,82.05
2023-02-24T18:41:20.597Z,82.44
2023-02-24T18:43:23.294Z,82.90
2023-02-24T18:45:25.895Z,82.51
2023-02-24T18:47:28.468Z,82.72
2023-02-24T18:49:30.985Z,81.58
2023-02-24T18:51:33.961Z,82.09
2023-02-24T18:53:37.143Z,81.60
2023-02-24T18:55:39.661Z,81.24
2023-02-24T18:57:42.261Z,81.14
2023-02-24T18:59:44.793Z,80.72
2023-02-24T19:01:47.355Z,81.47
2023-02-24T19:03:51.214Z,81.23
2023-02-24T19:05:53.721Z,80.18
2023-02-24T19:07:56.396Z,80.16
2023-02-24T19:09:58.847Z,80.40
2023-02-24T19:12:02.190Z,80.60
2023-02-24T19:14:05.283Z,80.43
2023-02-24T19:16:08.309Z,80.19
2023-02-24T19:18:10.990Z,79.92
2023-02-24T19:20:16.657Z,78.79
2023-02-24T19:22:19.246Z,79.46
2023-02-24T19:24:22.302Z,79.07
2023-02-24T19:26:27.246Z,79.33
2023-02-24T19:28:29.869Z,79.87
2023-02-24T19:30:32.517Z,79.17
2023-02-24T19:32:35.131Z,78.79
2023-02-24T19:34:38.072Z,78.38
2023-02-24T19:36:41.350Z,78.26
2023-02-24T19:38:43.885Z,78.14
2023-02-24T19:40:46.457Z,77.81
2023-02-24T19:42:51.850Z,77.82
2023-02-24T19:44:54.368Z,78.34
2023-02-24T19:46:56.836Z,78.31
2023-02-24T19:49:00.060Z,78.11
2023-02-24T19:51:09.163Z,77.31
2023-02-24T19:53:12.064Z,77.59
2023-02-24T19:55:14.804Z,78.58
2023-02-24T19:57:17.418Z,78.14
2023-02-24T19:59:19.945Z,78.21
2023-02-24T20:01:23.547Z,77.83
2023-02-24T20:03:28.439Z,77.98
2023-02-24T20:05:30.963Z,78.04
2023-02-24T20:07:34.958Z,77.83
2023-02-24T20:09:37.682Z,78.58
2023-02-24T20:11:40.591Z,78.31
2023-02-24T20:13:43.513Z,77.70
2023-02-24T20:15:46.333Z,78.06
2023-02-24T20:17:49.809Z,78.95
2023-02-24T20:19:52.561Z,78.47
2023-02-24T20:21:55.146Z,78.57
2023-02-24T20:24:01.806Z,77.74
2023-02-24T20:26:05.629Z,78.62
2023-02-24T20:28:08.155Z,79.12
2023-02-24T20:30:11.445Z,78.37
2023-02-24T20:32:14.434Z,78.55
2023-02-24T20:34:17.849Z,78.52
2023-02-24T20:36:26.152Z,78.45
2023-02-24T20:38:29.277Z,78.57
2023-02-24T20:40:34.098Z,78.39
2023-02-24T20:42:36.610Z,78.47
2023-02-24T20:44:39.468Z,78.79
2023-02-24T20:46:42.617Z,79.38
2023-02-24T20:48:45.240Z,79.41
2023-02-24T20:50:47.759Z,79.82
2023-02-24T20:52:50.392Z,79.20
2023-02-24T20:54:52.873Z,80.23
2023-02-24T20:56:55.971Z,80.23
2023-02-24T20:59:08.543Z,80.07
2023-02-24T21:01:12.150Z,80.10
2023-02-24T21:03:14.821Z,80.61
2023-02-24T21:05:23.903Z,80.68
2023-02-24T21:07:26.687Z,80.67
2023-02-24T21:09:29.364Z,80.72
2023-02-24T21:11:32.284Z,80.63
2023-02-24T21:13:36.411Z,80.73
2023-02-24T21:15:39.474Z,81.63
2023-02-24T21:17:42.115Z,81.73
2023-02-24T21:19:44.591Z,82.06
2023-02-24T21:21:47.448Z,81.56
2023-02-24T21:23:51.526Z,81.80
2023-02-24T21:25:54.561Z,81.88
2023-02-24T21:27:57.088Z,81.97
2023-02-24T21:29:59.644Z,82.58
2023-02-24T21:32:03.421Z,82.77
2023-02-24T21:34:06.176Z,82.20
2023-02-24T21:36:13.601Z,82.68
2023-02-24T21:38:16.071Z,82.13
2023-02-24T21:40:18.823Z,82.78
2023-02-24T21:42:22.548Z,83.22
2023-02-24T21:44:25.800Z,82.76
2023-02-24T21:46:28.859Z,83.23
2023-02-24T21:48:32.213Z,82.75
2023-02-24T21:50:34.750Z,83.06
2023-02-24T21:52:37.269Z,83.66
2023-02-24T21:54:40.239Z,83.65
2023-02-24T21:56:42.784Z,83.42
2023-02-24T21:58:48.443Z,83.52
2023-02-24T22:00:51.122Z,84.15
2023-02-24T22:02:55.623Z,84.01
2023-02-24T22:04:58.178Z,84.28
2023-02-24T22:07:00.662Z,83.87
2023-02-24T22:09:05.727Z,84.18
2023-02-24T22:11:08.205Z,83.98
2023-02-24T22:13:10.710Z,84.29
2023-02-24T22:15:14.252Z,84.26
2023-02-24T22:17:16.717Z,85.23
2023-02-24T22:19:22.338Z,84.35
2023-02-24T22:21:28.566Z,84.36
2023-02-24T22:23:31.027Z,85.18
2023-02-24T22:25:35.675Z,84.55
2023-02-24T22:27:38.939Z,84.56
2023-02-24T22:29:43.114Z,84.94
2023-02-24T22:31:49.593Z,85.21
2023-02-24T22:33:52.797Z,84.98
2023-02-24T22:35:55.854Z,85.33
2023-02-24T22:37:58.344Z,84.99
2023-02-24T22:40:00.953Z,85.23
2023-02-24T22:42:04.600Z,84.99
2023-02-24T22:44:07.276Z,85.25
2023-02-24T22:46:16.083Z,85.05
2023-02-24T22:48:18.724Z,85.61
2023-02-24T22:50:21.296Z,85.74
2023-02-24T22:52:23.858Z,86.00
2023-02-24T22:54:26.405Z,85.38
2023-02-24T22:56:29.962Z,85.86
2023-02-24T22:58:32.681Z,85.93
2023-02-24T23:00:35.183Z,85.83
2023-02-24T23:02:37.739Z,86.56
2023-02-24T23:04:40.227Z,86.16
2023-02-24T23:06:43.610Z,86.21
2023-02-24T23:08:48.096Z,86.12
2023-02-24T23:10:52.287Z,86.04
2023-02-24T23:12:55.598Z,85.90
2023-02-24T23:14:58.832Z,86.18
2023-02-24T23:17:01.350Z,86.21
2023-02-24T23:19:13.134Z,86.21
2023-02-24T23:21:18.542Z,86.46
2023-02-24T23:23:21.126Z,86.07
2023-02-24T23:25:23.727Z,86.21
2023-02-24T23:27:26.994Z,86.33
2023-02-24T23:29:30.905Z,86.71
2023-02-24T23:31:33.855Z,86.65
2023-02-24T23:33:36.471Z,86.80
2023-02-24T23:35:40.793Z,86.44
2023-02-24T23:37:43.411Z,86.51
2023-02-24T23:39:45.931Z,86.52
2023-02-24T23:41:48.530Z,86.75
2023-02-24T23:43:51.273Z,86.25
2023-02-24T23:45:53.918Z,86.76
2023-02-24T23:47:57.642Z,86.94
2023-02-24T23:50:00.973Z,86.76
2023-02-24T23:52:03.520Z,86.93
2023-02-24T23:54:06.071Z,86.45
2023-02-24T23:56:11.325Z,86.42
2023-02-24T23:58:13.785Z,87.16
